sensor_id;sensor_type;location;lat;lon;timestamp;P1;durP1;ratioP1;P2;durP2;ratioP2
18298;SDS011;9275;48.690;9.686;2024-02-15T00:04:37;7.33;;;2.47;;
18298;SDS011;9275;48.690;9.686;2024-02-15T00:09:42;6.13;;;1.90;;
18298;SDS011;9275;48.690;9.686;2024-02-15T00:14:46;5.53;;;1.70;;
18298;SDS011;9275;48.690;9.686;2024-02-15T00:19:52;5.37;;;1.60;;
18298;SDS011;9275;48.690;9.686;2024-02-15T00:24:57;5.97;;;1.73;;
18298;SDS011;9275;48.690;9.686;2024-02-15T00:30:02;6.27;;;1.53;;
18298;SDS011;9275;48.690;9.686;2024-02-15T00:35:09;2.20;;;1.30;;
18298;SDS011;9275;48.690;9.686;2024-02-15T00:40:14;9.27;;;1.90;;
18298;SDS011;9275;48.690;9.686;2024-02-15T00:45:19;4.20;;;1.57;;
18298;SDS011;9275;48.690;9.686;2024-02-15T00:50:25;6.93;;;1.93;;
18298;SDS011;9275;48.690;9.686;2024-02-15T00:55:30;4.33;;;1.90;;
18298;SDS011;9275;48.690;9.686;2024-02-15T01:00:34;6.87;;;1.60;;
18298;SDS011;9275;48.690;9.686;2024-02-15T01:05:42;6.97;;;1.73;;
18298;SDS011;9275;48.690;9.686;2024-02-15T01:10:46;6.50;;;1.43;;
18298;SDS011;9275;48.690;9.686;2024-02-15T01:15:51;13.23;;;1.80;;
18298;SDS011;9275;48.690;9.686;2024-02-15T01:20:57;5.33;;;1.60;;
18298;SDS011;9275;48.690;9.686;2024-02-15T01:26:02;4.37;;;1.70;;
18298;SDS011;9275;48.690;9.686;2024-02-15T01:31:07;3.53;;;1.60;;
18298;SDS011;9275;48.690;9.686;2024-02-15T01:36:15;7.90;;;2.13;;
18298;SDS011;9275;48.690;9.686;2024-02-15T01:41:19;7.40;;;2.07;;
18298;SDS011;9275;48.690;9.686;2024-02-15T01:46:25;5.93;;;1.97;;
18298;SDS011;9275;48.690;9.686;2024-02-15T01:51:31;7.03;;;1.63;;
18298;SDS011;9275;48.690;9.686;2024-02-15T01:56:37;7.17;;;2.20;;
18298;SDS011;9275;48.690;9.686;2024-02-15T02:01:42;5.63;;;1.83;;
18298;SDS011;9275;48.690;9.686;2024-02-15T02:06:50;8.27;;;1.80;;
18298;SDS011;9275;48.690;9.686;2024-02-15T02:12:01;4.87;;;1.60;;
18298;SDS011;9275;48.690;9.686;2024-02-15T02:17:12;3.40;;;1.47;;
18298;SDS011;9275;48.690;9.686;2024-02-15T02:22:19;4.43;;;1.30;;
18298;SDS011;9275;48.690;9.686;2024-02-15T02:27:25;5.63;;;1.37;;
18298;SDS011;9275;48.690;9.686;2024-02-15T02:32:31;4.47;;;1.60;;
18298;SDS011;9275;48.690;9.686;2024-02-15T02:37:38;4.87;;;1.50;;
18298;SDS011;9275;48.690;9.686;2024-02-15T02:42:51;4.40;;;1.37;;
18298;SDS011;9275;48.690;9.686;2024-02-15T02:47:58;5.57;;;1.60;;
18298;SDS011;9275;48.690;9.686;2024-02-15T02:53:03;4.20;;;1.40;;
18298;SDS011;9275;48.690;9.686;2024-02-15T02:58:09;3.27;;;1.60;;
18298;SDS011;9275;48.690;9.686;2024-02-15T03:03:15;5.67;;;1.50;;
18298;SDS011;9275;48.690;9.686;2024-02-15T03:08:20;7.00;;;1.50;;
18298;SDS011;9275;48.690;9.686;2024-02-15T03:13:27;2.87;;;1.30;;
18298;SDS011;9275;48.690;9.686;2024-02-15T03:18:32;5.13;;;1.53;;
18298;SDS011;9275;48.690;9.686;2024-02-15T03:23:37;4.60;;;1.80;;
18298;SDS011;9275;48.690;9.686;2024-02-15T03:28:43;4.33;;;1.50;;
18298;SDS011;9275;48.690;9.686;2024-02-15T03:33:48;7.67;;;1.93;;
18298;SDS011;9275;48.690;9.686;2024-02-15T03:38:53;5.70;;;1.93;;
18298;SDS011;9275;48.690;9.686;2024-02-15T03:43:59;7.37;;;2.00;;
18298;SDS011;9275;48.690;9.686;2024-02-15T03:49:04;4.57;;;2.13;;
18298;SDS011;9275;48.690;9.686;2024-02-15T03:54:10;5.50;;;2.10;;
18298;SDS011;9275;48.690;9.686;2024-02-15T03:59:16;4.23;;;1.90;;
18298;SDS011;9275;48.690;9.686;2024-02-15T04:04:23;4.07;;;1.80;;
18298;SDS011;9275;48.690;9.686;2024-02-15T04:09:28;5.73;;;2.30;;
18298;SDS011;9275;48.690;9.686;2024-02-15T04:14:34;5.53;;;1.97;;
18298;SDS011;9275;48.690;9.686;2024-02-15T04:19:40;9.00;;;2.90;;
18298;SDS011;9275;48.690;9.686;2024-02-15T04:24:45;5.77;;;2.27;;
18298;SDS011;9275;48.690;9.686;2024-02-15T04:29:51;6.37;;;2.47;;
18298;SDS011;9275;48.690;9.686;2024-02-15T04:34:56;5.97;;;2.33;;
18298;SDS011;9275;48.690;9.686;2024-02-15T04:40:01;5.57;;;2.20;;
18298;SDS011;9275;48.690;9.686;2024-02-15T04:45:12;5.13;;;2.10;;
18298;SDS011;9275;48.690;9.686;2024-02-15T04:50:18;11.20;;;2.50;;
18298;SDS011;9275;48.690;9.686;2024-02-15T04:55:23;5.30;;;2.00;;
18298;SDS011;9275;48.690;9.686;2024-02-15T05:00:30;7.40;;;3.33;;
18298;SDS011;9275;48.690;9.686;2024-02-15T05:05:34;6.20;;;2.40;;
18298;SDS011;9275;48.690;9.686;2024-02-15T05:10:41;6.77;;;2.20;;
18298;SDS011;9275;48.690;9.686;2024-02-15T05:15:49;6.47;;;2.00;;
18298;SDS011;9275;48.690;9.686;2024-02-15T05:20:54;4.77;;;1.80;;
18298;SDS011;9275;48.690;9.686;2024-02-15T05:25:58;2.13;;;1.33;;
18298;SDS011;9275;48.690;9.686;2024-02-15T05:31:11;6.00;;;1.83;;
18298;SDS011;9275;48.690;9.686;2024-02-15T05:36:21;5.90;;;1.70;;
18298;SDS011;9275;48.690;9.686;2024-02-15T05:41:27;2.80;;;1.77;;
18298;SDS011;9275;48.690;9.686;2024-02-15T05:46:33;5.03;;;1.70;;
18298;SDS011;9275;48.690;9.686;2024-02-15T05:51:40;3.57;;;1.70;;
18298;SDS011;9275;48.690;9.686;2024-02-15T05:56:46;3.60;;;1.87;;
18298;SDS011;9275;48.690;9.686;2024-02-15T06:01:56;6.97;;;2.00;;
18298;SDS011;9275;48.690;9.686;2024-02-15T06:07:00;4.93;;;2.00;;
18298;SDS011;9275;48.690;9.686;2024-02-15T06:12:05;5.50;;;1.97;;
18298;SDS011;9275;48.690;9.686;2024-02-15T06:17:13;5.93;;;2.23;;
18298;SDS011;9275;48.690;9.686;2024-02-15T06:22:17;4.87;;;2.10;;
18298;SDS011;9275;48.690;9.686;2024-02-15T06:27:22;7.30;;;2.30;;
18298;SDS011;9275;48.690;9.686;2024-02-15T06:32:28;4.77;;;2.07;;
18298;SDS011;9275;48.690;9.686;2024-02-15T06:37:50;7.47;;;1.70;;
18298;SDS011;9275;48.690;9.686;2024-02-15T06:43:12;4.77;;;1.90;;
18298;SDS011;9275;48.690;9.686;2024-02-15T06:48:18;4.30;;;1.40;;
18298;SDS011;9275;48.690;9.686;2024-02-15T06:53:23;8.20;;;1.80;;
18298;SDS011;9275;48.690;9.686;2024-02-15T06:58:28;4.50;;;1.90;;
18298;SDS011;9275;48.690;9.686;2024-02-15T07:03:34;2.93;;;1.70;;
18298;SDS011;9275;48.690;9.686;2024-02-15T07:08:39;6.57;;;1.90;;
18298;SDS011;9275;48.690;9.686;2024-02-15T07:13:43;4.37;;;1.67;;
18298;SDS011;9275;48.690;9.686;2024-02-15T07:18:50;3.87;;;1.80;;
18298;SDS011;9275;48.690;9.686;2024-02-15T07:23:55;5.47;;;1.67;;
18298;SDS011;9275;48.690;9.686;2024-02-15T07:29:00;4.53;;;1.47;;
18298;SDS011;9275;48.690;9.686;2024-02-15T07:34:09;5.10;;;1.40;;
18298;SDS011;9275;48.690;9.686;2024-02-15T07:39:14;4.70;;;1.50;;
18298;SDS011;9275;48.690;9.686;2024-02-15T07:44:26;4.77;;;1.50;;
18298;SDS011;9275;48.690;9.686;2024-02-15T07:49:34;4.60;;;1.60;;
18298;SDS011;9275;48.690;9.686;2024-02-15T07:54:38;3.50;;;1.47;;
18298;SDS011;9275;48.690;9.686;2024-02-15T07:59:43;5.17;;;1.60;;
18298;SDS011;9275;48.690;9.686;2024-02-15T08:04:51;3.03;;;1.30;;
18298;SDS011;9275;48.690;9.686;2024-02-15T08:09:56;4.30;;;1.50;;
18298;SDS011;9275;48.690;9.686;2024-02-15T08:15:02;4.53;;;1.50;;
18298;SDS011;9275;48.690;9.686;2024-02-15T08:20:09;3.43;;;1.40;;
18298;SDS011;9275;48.690;9.686;2024-02-15T08:25:15;3.03;;;1.10;;
18298;SDS011;9275;48.690;9.686;2024-02-15T08:30:20;4.60;;;1.30;;
18298;SDS011;9275;48.690;9.686;2024-02-15T08:35:27;2.33;;;1.30;;
18298;SDS011;9275;48.690;9.686;2024-02-15T08:40:32;4.17;;;1.30;;
18298;SDS011;9275;48.690;9.686;2024-02-15T08:45:37;1.93;;;1.10;;
18298;SDS011;9275;48.690;9.686;2024-02-15T08:50:43;5.50;;;1.20;;
18298;SDS011;9275;48.690;9.686;2024-02-15T08:55:48;4.03;;;1.10;;
18298;SDS011;9275;48.690;9.686;2024-02-15T09:00:55;2.77;;;1.13;;
18298;SDS011;9275;48.690;9.686;2024-02-15T09:06:01;2.13;;;0.77;;
18298;SDS011;9275;48.690;9.686;2024-02-15T09:11:07;2.47;;;0.90;;
18298;SDS011;9275;48.690;9.686;2024-02-15T09:16:14;2.23;;;1.00;;
18298;SDS011;9275;48.690;9.686;2024-02-15T09:21:20;2.40;;;0.70;;
18298;SDS011;9275;48.690;9.686;2024-02-15T09:26:26;2.07;;;0.97;;
18298;SDS011;9275;48.690;9.686;2024-02-15T09:31:31;1.77;;;0.80;;
18298;SDS011;9275;48.690;9.686;2024-02-15T09:36:38;2.63;;;1.20;;
18298;SDS011;9275;48.690;9.686;2024-02-15T09:41:43;3.07;;;0.97;;
18298;SDS011;9275;48.690;9.686;2024-02-15T09:46:47;2.30;;;0.90;;
18298;SDS011;9275;48.690;9.686;2024-02-15T09:52:07;2.07;;;0.90;;
18298;SDS011;9275;48.690;9.686;2024-02-15T09:57:14;3.17;;;1.07;;
18298;SDS011;9275;48.690;9.686;2024-02-15T10:02:20;1.90;;;1.00;;
18298;SDS011;9275;48.690;9.686;2024-02-15T10:07:26;1.77;;;0.87;;
18298;SDS011;9275;48.690;9.686;2024-02-15T10:12:36;2.73;;;1.00;;
18298;SDS011;9275;48.690;9.686;2024-02-15T10:17:42;2.43;;;1.17;;
18298;SDS011;9275;48.690;9.686;2024-02-15T10:23:10;1.93;;;1.20;;
18298;SDS011;9275;48.690;9.686;2024-02-15T10:28:20;2.37;;;1.10;;
18298;SDS011;9275;48.690;9.686;2024-02-15T10:33:26;1.67;;;0.90;;
18298;SDS011;9275;48.690;9.686;2024-02-15T10:38:34;2.90;;;1.27;;
18298;SDS011;9275;48.690;9.686;2024-02-15T10:43:39;2.20;;;1.20;;
18298;SDS011;9275;48.690;9.686;2024-02-15T10:48:48;1.70;;;1.20;;
18298;SDS011;9275;48.690;9.686;2024-02-15T10:53:57;1.23;;;1.10;;
18298;SDS011;9275;48.690;9.686;2024-02-15T10:59:09;1.83;;;1.37;;
18298;SDS011;9275;48.690;9.686;2024-02-15T11:04:18;1.83;;;0.97;;
18298;SDS011;9275;48.690;9.686;2024-02-15T11:09:26;1.90;;;1.10;;
18298;SDS011;9275;48.690;9.686;2024-02-15T11:14:32;2.47;;;1.10;;
18298;SDS011;9275;48.690;9.686;2024-02-15T11:19:43;2.10;;;1.20;;
18298;SDS011;9275;48.690;9.686;2024-02-15T11:24:52;1.73;;;1.10;;
18298;SDS011;9275;48.690;9.686;2024-02-15T11:29:57;2.60;;;1.10;;
18298;SDS011;9275;48.690;9.686;2024-02-15T11:35:07;2.33;;;1.30;;
18298;SDS011;9275;48.690;9.686;2024-02-15T11:40:19;1.20;;;1.00;;
18298;SDS011;9275;48.690;9.686;2024-02-15T11:45:26;2.63;;;1.10;;
18298;SDS011;9275;48.690;9.686;2024-02-15T11:50:36;1.60;;;1.07;;
18298;SDS011;9275;48.690;9.686;2024-02-15T11:55:43;2.27;;;1.03;;
18298;SDS011;9275;48.690;9.686;2024-02-15T12:00:48;2.20;;;1.10;;
18298;SDS011;9275;48.690;9.686;2024-02-15T12:06:09;2.43;;;0.90;;
18298;SDS011;9275;48.690;9.686;2024-02-15T12:11:33;1.40;;;0.97;;
18298;SDS011;9275;48.690;9.686;2024-02-15T12:16:59;2.57;;;0.90;;
18298;SDS011;9275;48.690;9.686;2024-02-15T12:22:24;2.03;;;0.80;;
18298;SDS011;9275;48.690;9.686;2024-02-15T12:27:32;2.87;;;0.93;;
18298;SDS011;9275;48.690;9.686;2024-02-15T12:32:37;1.57;;;0.90;;
18298;SDS011;9275;48.690;9.686;2024-02-15T12:37:42;2.53;;;0.90;;
18298;SDS011;9275;48.690;9.686;2024-02-15T12:42:48;1.57;;;0.83;;
18298;SDS011;9275;48.690;9.686;2024-02-15T12:47:53;2.80;;;1.07;;
18298;SDS011;9275;48.690;9.686;2024-02-15T12:53:00;1.93;;;0.97;;
18298;SDS011;9275;48.690;9.686;2024-02-15T12:58:12;1.33;;;0.90;;
18298;SDS011;9275;48.690;9.686;2024-02-15T13:03:18;1.43;;;0.63;;
18298;SDS011;9275;48.690;9.686;2024-02-15T13:08:22;0.83;;;0.70;;
18298;SDS011;9275;48.690;9.686;2024-02-15T13:13:28;1.10;;;0.87;;
18298;SDS011;9275;48.690;9.686;2024-02-15T13:18:33;1.30;;;0.80;;
18298;SDS011;9275;48.690;9.686;2024-02-15T13:23:38;1.27;;;1.00;;
18298;SDS011;9275;48.690;9.686;2024-02-15T13:28:44;1.20;;;0.90;;
18298;SDS011;9275;48.690;9.686;2024-02-15T13:33:49;2.90;;;1.00;;
18298;SDS011;9275;48.690;9.686;2024-02-15T13:38:53;1.80;;;1.00;;
18298;SDS011;9275;48.690;9.686;2024-02-15T13:43:59;1.83;;;1.13;;
18298;SDS011;9275;48.690;9.686;2024-02-15T13:49:04;1.17;;;0.90;;
18298;SDS011;9275;48.690;9.686;2024-02-15T13:54:20;1.60;;;0.87;;
18298;SDS011;9275;48.690;9.686;2024-02-15T13:59:27;1.10;;;0.90;;
18298;SDS011;9275;48.690;9.686;2024-02-15T14:04:32;1.40;;;0.90;;
18298;SDS011;9275;48.690;9.686;2024-02-15T14:09:37;1.40;;;1.00;;
18298;SDS011;9275;48.690;9.686;2024-02-15T14:14:43;1.80;;;1.10;;
18298;SDS011;9275;48.690;9.686;2024-02-15T14:19:48;1.43;;;1.00;;
18298;SDS011;9275;48.690;9.686;2024-02-15T14:24:53;1.43;;;0.90;;
18298;SDS011;9275;48.690;9.686;2024-02-15T14:29:59;2.10;;;0.97;;
18298;SDS011;9275;48.690;9.686;2024-02-15T14:35:22;0.80;;;0.80;;
18298;SDS011;9275;48.690;9.686;2024-02-15T14:40:26;1.20;;;0.90;;
18298;SDS011;9275;48.690;9.686;2024-02-15T14:45:48;1.40;;;1.13;;
18298;SDS011;9275;48.690;9.686;2024-02-15T14:50:53;1.60;;;1.20;;
18298;SDS011;9275;48.690;9.686;2024-02-15T14:55:59;1.80;;;1.20;;
18298;SDS011;9275;48.690;9.686;2024-02-15T15:01:08;1.13;;;1.00;;
18298;SDS011;9275;48.690;9.686;2024-02-15T15:06:15;1.50;;;1.10;;
18298;SDS011;9275;48.690;9.686;2024-02-15T15:11:37;1.17;;;1.07;;
18298;SDS011;9275;48.690;9.686;2024-02-15T15:17:01;3.53;;;1.43;;
18298;SDS011;9275;48.690;9.686;2024-02-15T15:22:06;2.07;;;1.33;;
18298;SDS011;9275;48.690;9.686;2024-02-15T15:27:10;2.77;;;1.27;;
18298;SDS011;9275;48.690;9.686;2024-02-15T15:32:16;3.97;;;1.60;;
18298;SDS011;9275;48.690;9.686;2024-02-15T15:37:21;2.73;;;1.30;;
18298;SDS011;9275;48.690;9.686;2024-02-15T15:42:25;2.00;;;1.40;;
18298;SDS011;9275;48.690;9.686;2024-02-15T15:47:31;2.07;;;1.30;;
18298;SDS011;9275;48.690;9.686;2024-02-15T15:52:37;3.30;;;1.40;;
18298;SDS011;9275;48.690;9.686;2024-02-15T15:57:42;2.77;;;1.40;;
18298;SDS011;9275;48.690;9.686;2024-02-15T16:02:48;2.00;;;1.30;;
18298;SDS011;9275;48.690;9.686;2024-02-15T16:07:54;1.90;;;1.27;;
18298;SDS011;9275;48.690;9.686;2024-02-15T16:12:58;2.40;;;1.33;;
18298;SDS011;9275;48.690;9.686;2024-02-15T16:18:05;2.43;;;1.20;;
18298;SDS011;9275;48.690;9.686;2024-02-15T16:23:10;2.23;;;1.10;;
18298;SDS011;9275;48.690;9.686;2024-02-15T16:28:15;1.33;;;1.10;;
18298;SDS011;9275;48.690;9.686;2024-02-15T16:33:21;1.97;;;1.27;;
18298;SDS011;9275;48.690;9.686;2024-02-15T16:38:26;1.13;;;0.90;;
18298;SDS011;9275;48.690;9.686;2024-02-15T16:43:31;1.80;;;1.03;;
18298;SDS011;9275;48.690;9.686;2024-02-15T16:48:37;1.73;;;1.23;;
18298;SDS011;9275;48.690;9.686;2024-02-15T16:53:42;2.20;;;1.20;;
18298;SDS011;9275;48.690;9.686;2024-02-15T16:58:46;2.03;;;1.30;;
18298;SDS011;9275;48.690;9.686;2024-02-15T17:03:52;2.97;;;1.23;;
18298;SDS011;9275;48.690;9.686;2024-02-15T17:09:00;2.67;;;1.40;;
18298;SDS011;9275;48.690;9.686;2024-02-15T17:14:06;1.57;;;1.20;;
18298;SDS011;9275;48.690;9.686;2024-02-15T17:19:12;3.07;;;1.57;;
18298;SDS011;9275;48.690;9.686;2024-02-15T17:24:17;1.93;;;1.23;;
18298;SDS011;9275;48.690;9.686;2024-02-15T17:29:22;2.03;;;1.40;;
18298;SDS011;9275;48.690;9.686;2024-02-15T17:34:28;1.80;;;1.30;;
18298;SDS011;9275;48.690;9.686;2024-02-15T17:39:33;2.00;;;1.10;;
18298;SDS011;9275;48.690;9.686;2024-02-15T17:44:38;2.13;;;1.47;;
18298;SDS011;9275;48.690;9.686;2024-02-15T17:49:44;2.40;;;1.50;;
18298;SDS011;9275;48.690;9.686;2024-02-15T17:54:50;2.07;;;1.20;;
18298;SDS011;9275;48.690;9.686;2024-02-15T17:59:54;2.33;;;1.33;;
18298;SDS011;9275;48.690;9.686;2024-02-15T18:05:01;2.20;;;1.30;;
18298;SDS011;9275;48.690;9.686;2024-02-15T18:10:09;1.93;;;1.27;;
18298;SDS011;9275;48.690;9.686;2024-02-15T18:15:14;2.73;;;1.30;;
18298;SDS011;9275;48.690;9.686;2024-02-15T18:20:29;1.70;;;1.23;;
18298;SDS011;9275;48.690;9.686;2024-02-15T18:25:34;2.93;;;1.27;;
18298;SDS011;9275;48.690;9.686;2024-02-15T18:30:39;2.03;;;1.30;;
18298;SDS011;9275;48.690;9.686;2024-02-15T18:35:51;1.50;;;1.10;;
18298;SDS011;9275;48.690;9.686;2024-02-15T18:40:57;1.70;;;1.00;;
18298;SDS011;9275;48.690;9.686;2024-02-15T18:46:01;2.20;;;0.80;;
18298;SDS011;9275;48.690;9.686;2024-02-15T18:51:08;1.73;;;1.00;;
18298;SDS011;9275;48.690;9.686;2024-02-15T18:56:18;1.20;;;0.90;;
18298;SDS011;9275;48.690;9.686;2024-02-15T19:01:22;1.57;;;0.83;;
18298;SDS011;9275;48.690;9.686;2024-02-15T19:06:29;0.93;;;0.70;;
18298;SDS011;9275;48.690;9.686;2024-02-15T19:11:42;1.43;;;1.03;;
18298;SDS011;9275;48.690;9.686;2024-02-15T19:16:47;1.13;;;0.90;;
18298;SDS011;9275;48.690;9.686;2024-02-15T19:21:53;1.80;;;0.93;;
18298;SDS011;9275;48.690;9.686;2024-02-15T19:26:58;0.90;;;0.73;;
18298;SDS011;9275;48.690;9.686;2024-02-15T19:32:02;1.50;;;0.97;;
18298;SDS011;9275;48.690;9.686;2024-02-15T19:37:09;1.23;;;0.80;;
18298;SDS011;9275;48.690;9.686;2024-02-15T19:42:16;1.20;;;0.70;;
18298;SDS011;9275;48.690;9.686;2024-02-15T19:47:21;0.60;;;0.50;;
18298;SDS011;9275;48.690;9.686;2024-02-15T19:52:28;0.93;;;0.63;;
18298;SDS011;9275;48.690;9.686;2024-02-15T19:57:33;0.87;;;0.60;;
18298;SDS011;9275;48.690;9.686;2024-02-15T20:02:37;2.30;;;0.70;;
18298;SDS011;9275;48.690;9.686;2024-02-15T20:07:44;0.90;;;0.60;;
18298;SDS011;9275;48.690;9.686;2024-02-15T20:12:49;0.80;;;0.53;;
18298;SDS011;9275;48.690;9.686;2024-02-15T20:17:53;0.63;;;0.57;;
18298;SDS011;9275;48.690;9.686;2024-02-15T20:23:01;1.07;;;0.70;;
18298;SDS011;9275;48.690;9.686;2024-02-15T20:28:06;1.30;;;0.90;;
18298;SDS011;9275;48.690;9.686;2024-02-15T20:33:10;0.83;;;0.60;;
18298;SDS011;9275;48.690;9.686;2024-02-15T20:38:18;0.87;;;0.70;;
18298;SDS011;9275;48.690;9.686;2024-02-15T20:43:25;1.23;;;0.70;;
18298;SDS011;9275;48.690;9.686;2024-02-15T20:48:31;1.37;;;0.70;;
18298;SDS011;9275;48.690;9.686;2024-02-15T20:53:37;1.00;;;0.70;;
18298;SDS011;9275;48.690;9.686;2024-02-15T20:58:42;1.10;;;0.77;;
18298;SDS011;9275;48.690;9.686;2024-02-15T21:03:47;1.00;;;0.70;;
18298;SDS011;9275;48.690;9.686;2024-02-15T21:08:54;1.00;;;0.80;;
18298;SDS011;9275;48.690;9.686;2024-02-15T21:14:00;1.73;;;0.90;;
18298;SDS011;9275;48.690;9.686;2024-02-15T21:19:05;1.80;;;1.07;;
18298;SDS011;9275;48.690;9.686;2024-02-15T21:24:15;1.60;;;1.13;;
18298;SDS011;9275;48.690;9.686;2024-02-15T21:29:22;1.33;;;0.97;;
18298;SDS011;9275;48.690;9.686;2024-02-15T21:34:26;1.93;;;1.23;;
18298;SDS011;9275;48.690;9.686;2024-02-15T21:39:32;1.87;;;1.13;;
18298;SDS011;9275;48.690;9.686;2024-02-15T21:44:42;2.43;;;1.30;;
18298;SDS011;9275;48.690;9.686;2024-02-15T21:49:47;1.80;;;1.20;;
18298;SDS011;9275;48.690;9.686;2024-02-15T21:54:53;2.50;;;1.27;;
18298;SDS011;9275;48.690;9.686;2024-02-15T21:59:58;1.53;;;1.10;;
18298;SDS011;9275;48.690;9.686;2024-02-15T22:05:11;1.87;;;1.20;;
18298;SDS011;9275;48.690;9.686;2024-02-15T22:10:17;1.47;;;0.90;;
18298;SDS011;9275;48.690;9.686;2024-02-15T22:15:22;0.87;;;0.70;;
18298;SDS011;9275;48.690;9.686;2024-02-15T22:20:26;0.73;;;0.63;;
18298;SDS011;9275;48.690;9.686;2024-02-15T22:25:32;0.90;;;0.80;;
18298;SDS011;9275;48.690;9.686;2024-02-15T22:30:39;1.00;;;0.80;;
18298;SDS011;9275;48.690;9.686;2024-02-15T22:35:44;0.93;;;0.73;;
18298;SDS011;9275;48.690;9.686;2024-02-15T22:40:50;1.30;;;0.90;;
18298;SDS011;9275;48.690;9.686;2024-02-15T22:45:55;1.50;;;0.83;;
18298;SDS011;9275;48.690;9.686;2024-02-15T22:51:00;1.70;;;0.90;;
18298;SDS011;9275;48.690;9.686;2024-02-15T22:56:08;1.50;;;1.10;;
18298;SDS011;9275;48.690;9.686;2024-02-15T23:01:14;1.97;;;1.10;;
18298;SDS011;9275;48.690;9.686;2024-02-15T23:06:19;2.17;;;0.90;;
18298;SDS011;9275;48.690;9.686;2024-02-15T23:11:25;1.90;;;1.00;;
18298;SDS011;9275;48.690;9.686;2024-02-15T23:16:29;1.37;;;0.87;;
18298;SDS011;9275;48.690;9.686;2024-02-15T23:21:34;1.13;;;0.80;;
18298;SDS011;9275;48.690;9.686;2024-02-15T23:26:40;1.30;;;0.87;;
18298;SDS011;9275;48.690;9.686;2024-02-15T23:31:44;1.07;;;0.80;;
18298;SDS011;9275;48.690;9.686;2024-02-15T23:36:49;1.07;;;0.80;;
18298;SDS011;9275;48.690;9.686;2024-02-15T23:42:12;0.90;;;0.60;;
18298;SDS011;9275;48.690;9.686;2024-02-15T23:47:17;1.17;;;0.70;;
18298;SDS011;9275;48.690;9.686;2024-02-15T23:52:22;1.90;;;0.80;;
18298;SDS011;9275;48.690;9.686;2024-02-15T23:57:28;1.50;;;0.90;;
